Terminal Aerodrome Forecast
Issued by NWS Blacksburg, VA

Home | Current Version | Previous Version | Text Only | Print | Product List | Glossary On
Versions: 1 2 3 4 5 6 7 8 9 10 11 12 13 14 15 16 17 18 19 20 21 22 23 24 25 26 27 28
000
FTUS41 KRNK 040522
TAFDAN
TAF
KDAN 040522Z 0406/0506 00000KT P6SM SKC
     FM040800 VRB03KT 4SM BR BKN060
     FM041300 03006KT P6SM SCT050 SCT100
     FM042100 03004KT 5SM SHRA VCTS BKN050CB
     FM050100 04003KT P6SM -SHRA BKN045 BKN080=

USA.gov is the U.S. government's official web portal to all federal, state and local government web resources and services.